< < Back
Terminal Aerodrome Forecast


Current Version              Previous Versions:   1  2  3  4  5  6  7  8  9  

Terminal Aerodrome Forecast

668
FTUS42 KFFC 301137
TAFPDK
TAF
KPDK 301137Z 3012/3112 25006KT P6SM SCT100 SCT250
     FM301400 28006KT P6SM SCT035
     FM301600 29008KT P6SM SCT050
      TEMPO 3019/3023 5SM -TSRA BKN035CB
     FM310000 24004KT P6SM SCT070 SCT250=

Latest METAR

202
SAUS70 KWBC 302200 RRG
MTRPDK
METAR KPDK 302153Z 21010KT 10SM CLR 28/22 A3001 RMK AO2 SLP144 T02780222
$


USA.gov is the U.S. government's official web portal to all federal, state and local government web resources and services.